sensor_id;sensor_type;location;lat;lon;timestamp;temperature;humidity
19180;DHT22;9722;48.754;8.868;2022-12-18T00:02:31;-11.40;83.20
19180;DHT22;9722;48.754;8.868;2022-12-18T00:05:52;-11.50;83.10
19180;DHT22;9722;48.754;8.868;2022-12-18T00:09:14;-11.50;83.00
19180;DHT22;9722;48.754;8.868;2022-12-18T00:12:35;-11.60;82.80
19180;DHT22;9722;48.754;8.868;2022-12-18T00:15:55;-11.70;82.50
19180;DHT22;9722;48.754;8.868;2022-12-18T00:19:21;-11.70;82.60
19180;DHT22;9722;48.754;8.868;2022-12-18T00:22:41;-11.70;83.10
19180;DHT22;9722;48.754;8.868;2022-12-18T00:26:05;-11.80;83.30
19180;DHT22;9722;48.754;8.868;2022-12-18T00:29:26;-11.70;83.50
19180;DHT22;9722;48.754;8.868;2022-12-18T00:32:46;-11.80;83.40
19180;DHT22;9722;48.754;8.868;2022-12-18T00:36:10;-11.80;83.70
19180;DHT22;9722;48.754;8.868;2022-12-18T00:39:31;-11.80;84.00
19180;DHT22;9722;48.754;8.868;2022-12-18T00:42:51;-11.80;84.10
19180;DHT22;9722;48.754;8.868;2022-12-18T00:46:18;-11.80;83.90
19180;DHT22;9722;48.754;8.868;2022-12-18T00:49:38;-11.80;84.00
19180;DHT22;9722;48.754;8.868;2022-12-18T00:52:59;-11.80;84.40
19180;DHT22;9722;48.754;8.868;2022-12-18T00:56:20;-11.80;84.80
19180;DHT22;9722;48.754;8.868;2022-12-18T00:59:41;-11.70;85.30
19180;DHT22;9722;48.754;8.868;2022-12-18T01:03:02;-11.70;85.40
19180;DHT22;9722;48.754;8.868;2022-12-18T01:06:22;-11.70;85.30
19180;DHT22;9722;48.754;8.868;2022-12-18T01:09:43;-11.80;84.80
19180;DHT22;9722;48.754;8.868;2022-12-18T01:13:04;-11.80;84.60
19180;DHT22;9722;48.754;8.868;2022-12-18T01:16:24;-11.80;84.80
19180;DHT22;9722;48.754;8.868;2022-12-18T01:19:45;-11.80;84.90
19180;DHT22;9722;48.754;8.868;2022-12-18T01:23:05;-11.80;85.10
19180;DHT22;9722;48.754;8.868;2022-12-18T01:26:27;-11.80;85.20
19180;DHT22;9722;48.754;8.868;2022-12-18T01:29:49;-11.80;84.90
19180;DHT22;9722;48.754;8.868;2022-12-18T01:33:10;-11.90;84.70
19180;DHT22;9722;48.754;8.868;2022-12-18T01:36:33;-11.90;84.80
19180;DHT22;9722;48.754;8.868;2022-12-18T01:39:54;-11.90;85.20
19180;DHT22;9722;48.754;8.868;2022-12-18T01:43:14;-11.90;85.20
19180;DHT22;9722;48.754;8.868;2022-12-18T01:46:35;-11.80;85.40
19180;DHT22;9722;48.754;8.868;2022-12-18T01:49:57;-11.60;85.50
19180;DHT22;9722;48.754;8.868;2022-12-18T01:53:21;-11.70;85.50
19180;DHT22;9722;48.754;8.868;2022-12-18T01:56:42;-11.60;85.50
19180;DHT22;9722;48.754;8.868;2022-12-18T02:00:13;-11.50;85.50
19180;DHT22;9722;48.754;8.868;2022-12-18T02:03:33;-11.40;85.10
19180;DHT22;9722;48.754;8.868;2022-12-18T02:07:16;-11.40;84.70
19180;DHT22;9722;48.754;8.868;2022-12-18T02:14:35;-11.40;84.90
19180;DHT22;9722;48.754;8.868;2022-12-18T02:18:11;-11.40;84.80
19180;DHT22;9722;48.754;8.868;2022-12-18T02:21:58;-11.40;84.60
19180;DHT22;9722;48.754;8.868;2022-12-18T02:29:18;-11.50;84.50
19180;DHT22;9722;48.754;8.868;2022-12-18T02:32:46;-11.50;84.70
19180;DHT22;9722;48.754;8.868;2022-12-18T02:36:09;-11.50;84.70
19180;DHT22;9722;48.754;8.868;2022-12-18T02:39:32;-11.50;84.90
19180;DHT22;9722;48.754;8.868;2022-12-18T02:42:53;-11.50;85.00
19180;DHT22;9722;48.754;8.868;2022-12-18T02:46:27;-11.40;85.10
19180;DHT22;9722;48.754;8.868;2022-12-18T02:53:27;-11.40;85.10
19180;DHT22;9722;48.754;8.868;2022-12-18T02:56:53;-11.50;85.00
19180;DHT22;9722;48.754;8.868;2022-12-18T03:00:19;-11.40;85.20
19180;DHT22;9722;48.754;8.868;2022-12-18T03:04:01;-11.40;85.20
19180;DHT22;9722;48.754;8.868;2022-12-18T03:07:53;-11.40;85.20
19180;DHT22;9722;48.754;8.868;2022-12-18T03:11:16;-11.40;85.40
19180;DHT22;9722;48.754;8.868;2022-12-18T03:18:46;-11.40;85.70
19180;DHT22;9722;48.754;8.868;2022-12-18T03:22:09;-11.40;85.80
19180;DHT22;9722;48.754;8.868;2022-12-18T03:25:31;-11.30;86.00
19180;DHT22;9722;48.754;8.868;2022-12-18T03:28:57;-11.30;86.10
19180;DHT22;9722;48.754;8.868;2022-12-18T03:32:26;-11.30;86.40
19180;DHT22;9722;48.754;8.868;2022-12-18T03:35:49;-11.20;86.70
19180;DHT22;9722;48.754;8.868;2022-12-18T03:39:10;-11.20;86.70
19180;DHT22;9722;48.754;8.868;2022-12-18T03:42:53;-11.10;86.80
19180;DHT22;9722;48.754;8.868;2022-12-18T03:46:24;-11.10;86.60
19180;DHT22;9722;48.754;8.868;2022-12-18T03:53:40;-11.20;86.50
19180;DHT22;9722;48.754;8.868;2022-12-18T03:57:18;-11.20;86.90
19180;DHT22;9722;48.754;8.868;2022-12-18T04:00:40;-11.20;86.90
19180;DHT22;9722;48.754;8.868;2022-12-18T04:04:02;-11.20;87.10
19180;DHT22;9722;48.754;8.868;2022-12-18T04:07:24;-11.20;87.30
19180;DHT22;9722;48.754;8.868;2022-12-18T04:10:44;-11.10;87.70
19180;DHT22;9722;48.754;8.868;2022-12-18T04:14:05;-11.10;87.90
19180;DHT22;9722;48.754;8.868;2022-12-18T04:17:26;-11.00;88.20
19180;DHT22;9722;48.754;8.868;2022-12-18T04:20:46;-11.00;88.30
19180;DHT22;9722;48.754;8.868;2022-12-18T04:24:07;-11.00;88.30
19180;DHT22;9722;48.754;8.868;2022-12-18T04:27:27;-10.90;88.50
19180;DHT22;9722;48.754;8.868;2022-12-18T04:30:48;-10.90;88.60
19180;DHT22;9722;48.754;8.868;2022-12-18T04:34:09;-10.90;88.60
19180;DHT22;9722;48.754;8.868;2022-12-18T04:37:30;-10.80;88.60
19180;DHT22;9722;48.754;8.868;2022-12-18T04:40:50;-10.80;88.80
19180;DHT22;9722;48.754;8.868;2022-12-18T04:44:11;-10.80;89.00
19180;DHT22;9722;48.754;8.868;2022-12-18T04:47:31;-10.70;89.40
19180;DHT22;9722;48.754;8.868;2022-12-18T04:50:52;-10.70;89.40
19180;DHT22;9722;48.754;8.868;2022-12-18T04:54:12;-10.70;89.90
19180;DHT22;9722;48.754;8.868;2022-12-18T04:57:33;-10.60;90.00
19180;DHT22;9722;48.754;8.868;2022-12-18T05:00:53;-10.60;90.20
19180;DHT22;9722;48.754;8.868;2022-12-18T05:04:14;-10.50;90.40
19180;DHT22;9722;48.754;8.868;2022-12-18T05:07:34;-10.50;90.50
19180;DHT22;9722;48.754;8.868;2022-12-18T05:10:59;-10.40;90.70
19180;DHT22;9722;48.754;8.868;2022-12-18T05:14:20;-10.40;90.80
19180;DHT22;9722;48.754;8.868;2022-12-18T05:17:40;-10.30;90.90
19180;DHT22;9722;48.754;8.868;2022-12-18T05:21:01;-10.20;91.00
19180;DHT22;9722;48.754;8.868;2022-12-18T05:24:22;-10.20;91.10
19180;DHT22;9722;48.754;8.868;2022-12-18T05:27:43;-10.10;91.30
19180;DHT22;9722;48.754;8.868;2022-12-18T05:31:04;-9.90;91.70
19180;DHT22;9722;48.754;8.868;2022-12-18T05:34:25;-9.60;91.80
19180;DHT22;9722;48.754;8.868;2022-12-18T05:37:45;-9.40;92.00
19180;DHT22;9722;48.754;8.868;2022-12-18T05:41:06;-9.20;91.90
19180;DHT22;9722;48.754;8.868;2022-12-18T05:44:27;-9.10;91.90
19180;DHT22;9722;48.754;8.868;2022-12-18T05:47:47;-8.90;91.90
19180;DHT22;9722;48.754;8.868;2022-12-18T05:51:14;-8.80;91.90
19180;DHT22;9722;48.754;8.868;2022-12-18T05:54:35;-8.70;91.90
19180;DHT22;9722;48.754;8.868;2022-12-18T05:57:55;-8.70;91.90
19180;DHT22;9722;48.754;8.868;2022-12-18T06:01:18;-8.60;92.00
19180;DHT22;9722;48.754;8.868;2022-12-18T06:04:39;-8.50;92.10
19180;DHT22;9722;48.754;8.868;2022-12-18T06:08:00;-8.40;92.20
19180;DHT22;9722;48.754;8.868;2022-12-18T06:11:26;-8.30;92.30
19180;DHT22;9722;48.754;8.868;2022-12-18T06:14:47;-8.30;92.20
19180;DHT22;9722;48.754;8.868;2022-12-18T06:18:07;-8.20;92.10
19180;DHT22;9722;48.754;8.868;2022-12-18T06:21:28;-8.30;92.10
19180;DHT22;9722;48.754;8.868;2022-12-18T06:24:49;-8.20;92.20
19180;DHT22;9722;48.754;8.868;2022-12-18T06:28:10;-8.30;92.20
19180;DHT22;9722;48.754;8.868;2022-12-18T06:31:30;-8.30;92.20
19180;DHT22;9722;48.754;8.868;2022-12-18T06:34:51;-8.30;92.60
19180;DHT22;9722;48.754;8.868;2022-12-18T06:38:12;-8.40;92.20
19180;DHT22;9722;48.754;8.868;2022-12-18T06:41:32;-8.40;92.30
19180;DHT22;9722;48.754;8.868;2022-12-18T06:44:53;-8.50;92.40
19180;DHT22;9722;48.754;8.868;2022-12-18T06:48:13;-8.50;92.50
19180;DHT22;9722;48.754;8.868;2022-12-18T06:51:34;-8.40;92.60
19180;DHT22;9722;48.754;8.868;2022-12-18T06:54:55;-8.50;92.50
19180;DHT22;9722;48.754;8.868;2022-12-18T06:58:15;-8.50;92.60
19180;DHT22;9722;48.754;8.868;2022-12-18T07:01:36;-8.50;92.80
19180;DHT22;9722;48.754;8.868;2022-12-18T07:04:56;-8.50;92.80
19180;DHT22;9722;48.754;8.868;2022-12-18T07:08:17;-8.50;92.80
19180;DHT22;9722;48.754;8.868;2022-12-18T07:11:37;-8.50;92.90
19180;DHT22;9722;48.754;8.868;2022-12-18T07:14:58;-8.50;92.90
19180;DHT22;9722;48.754;8.868;2022-12-18T07:18:18;-8.50;92.90
19180;DHT22;9722;48.754;8.868;2022-12-18T07:21:39;-8.40;92.90
19180;DHT22;9722;48.754;8.868;2022-12-18T07:24:59;-8.40;92.90
19180;DHT22;9722;48.754;8.868;2022-12-18T07:28:20;-8.40;92.90
19180;DHT22;9722;48.754;8.868;2022-12-18T07:31:40;-8.30;92.90
19180;DHT22;9722;48.754;8.868;2022-12-18T07:35:01;-8.30;92.80
19180;DHT22;9722;48.754;8.868;2022-12-18T07:38:22;-8.20;92.70
19180;DHT22;9722;48.754;8.868;2022-12-18T07:41:42;-8.10;92.90
19180;DHT22;9722;48.754;8.868;2022-12-18T07:45:06;-7.70;92.90
19180;DHT22;9722;48.754;8.868;2022-12-18T07:48:28;-7.10;92.80
19180;DHT22;9722;48.754;8.868;2022-12-18T07:51:49;-6.60;92.30
19180;DHT22;9722;48.754;8.868;2022-12-18T07:55:09;-6.00;91.60
19180;DHT22;9722;48.754;8.868;2022-12-18T07:58:30;-5.60;90.60
19180;DHT22;9722;48.754;8.868;2022-12-18T08:01:50;-5.20;89.80
19180;DHT22;9722;48.754;8.868;2022-12-18T08:05:11;-4.70;87.40
19180;DHT22;9722;48.754;8.868;2022-12-18T08:08:33;-4.40;85.00
19180;DHT22;9722;48.754;8.868;2022-12-18T08:11:53;-4.00;83.50
19180;DHT22;9722;48.754;8.868;2022-12-18T08:15:14;-3.60;82.10
19180;DHT22;9722;48.754;8.868;2022-12-18T08:18:36;-3.20;80.20
19180;DHT22;9722;48.754;8.868;2022-12-18T08:21:57;-2.80;78.30
19180;DHT22;9722;48.754;8.868;2022-12-18T08:25:17;-2.70;77.00
19180;DHT22;9722;48.754;8.868;2022-12-18T08:28:38;-3.20;76.70
19180;DHT22;9722;48.754;8.868;2022-12-18T08:31:59;-3.80;77.30
19180;DHT22;9722;48.754;8.868;2022-12-18T08:35:19;-4.20;78.60
19180;DHT22;9722;48.754;8.868;2022-12-18T08:38:40;-4.60;79.90
19180;DHT22;9722;48.754;8.868;2022-12-18T08:42:00;-4.80;81.00
19180;DHT22;9722;48.754;8.868;2022-12-18T08:45:39;-4.90;82.00
19180;DHT22;9722;48.754;8.868;2022-12-18T08:49:00;-5.00;82.90
19180;DHT22;9722;48.754;8.868;2022-12-18T08:52:21;-5.00;83.70
19180;DHT22;9722;48.754;8.868;2022-12-18T08:55:41;-5.00;84.40
19180;DHT22;9722;48.754;8.868;2022-12-18T08:59:02;-4.90;85.30
19180;DHT22;9722;48.754;8.868;2022-12-18T09:02:23;-4.20;86.60
19180;DHT22;9722;48.754;8.868;2022-12-18T09:05:45;-2.70;84.20
19180;DHT22;9722;48.754;8.868;2022-12-18T09:09:06;-1.40;79.90
19180;DHT22;9722;48.754;8.868;2022-12-18T09:12:27;-0.30;75.80
19180;DHT22;9722;48.754;8.868;2022-12-18T09:15:49;0.60;71.70
19180;DHT22;9722;48.754;8.868;2022-12-18T09:19:10;1.40;69.50
19180;DHT22;9722;48.754;8.868;2022-12-18T09:22:31;1.90;66.80
19180;DHT22;9722;48.754;8.868;2022-12-18T09:25:51;2.40;64.80
19180;DHT22;9722;48.754;8.868;2022-12-18T09:29:12;2.60;62.70
19180;DHT22;9722;48.754;8.868;2022-12-18T09:32:32;2.80;61.10
19180;DHT22;9722;48.754;8.868;2022-12-18T09:35:53;3.10;60.40
19180;DHT22;9722;48.754;8.868;2022-12-18T09:39:14;3.50;59.20
19180;DHT22;9722;48.754;8.868;2022-12-18T09:42:34;3.80;58.00
19180;DHT22;9722;48.754;8.868;2022-12-18T09:45:59;4.00;57.20
19180;DHT22;9722;48.754;8.868;2022-12-18T09:49:23;4.20;56.70
19180;DHT22;9722;48.754;8.868;2022-12-18T09:52:49;4.60;56.40
19180;DHT22;9722;48.754;8.868;2022-12-18T09:56:16;5.10;55.40
19180;DHT22;9722;48.754;8.868;2022-12-18T09:59:39;5.50;54.60
19180;DHT22;9722;48.754;8.868;2022-12-18T10:03:08;5.70;53.50
19180;DHT22;9722;48.754;8.868;2022-12-18T10:10:13;6.20;52.30
19180;DHT22;9722;48.754;8.868;2022-12-18T10:13:41;6.50;51.80
19180;DHT22;9722;48.754;8.868;2022-12-18T10:20:58;6.50;50.30
19180;DHT22;9722;48.754;8.868;2022-12-18T10:24:30;6.50;50.20
19180;DHT22;9722;48.754;8.868;2022-12-18T10:28:00;6.70;50.20
19180;DHT22;9722;48.754;8.868;2022-12-18T10:31:24;7.20;49.70
19180;DHT22;9722;48.754;8.868;2022-12-18T10:34:46;7.90;49.10
19180;DHT22;9722;48.754;8.868;2022-12-18T10:41:36;8.50;47.60
19180;DHT22;9722;48.754;8.868;2022-12-18T10:45:13;8.50;47.40
19180;DHT22;9722;48.754;8.868;2022-12-18T10:48:55;8.60;46.90
19180;DHT22;9722;48.754;8.868;2022-12-18T10:52:24;8.50;47.00
19180;DHT22;9722;48.754;8.868;2022-12-18T10:55:46;8.50;47.00
19180;DHT22;9722;48.754;8.868;2022-12-18T10:59:09;8.50;46.80
19180;DHT22;9722;48.754;8.868;2022-12-18T11:02:35;8.60;46.90
19180;DHT22;9722;48.754;8.868;2022-12-18T11:06:12;9.10;46.60
19180;DHT22;9722;48.754;8.868;2022-12-18T11:09:37;9.50;45.90
19180;DHT22;9722;48.754;8.868;2022-12-18T11:13:20;9.90;45.50
19180;DHT22;9722;48.754;8.868;2022-12-18T11:16:46;10.20;44.20
19180;DHT22;9722;48.754;8.868;2022-12-18T11:23:49;11.20;43.10
19180;DHT22;9722;48.754;8.868;2022-12-18T11:27:17;11.30;42.30
19180;DHT22;9722;48.754;8.868;2022-12-18T11:30:38;11.30;42.10
19180;DHT22;9722;48.754;8.868;2022-12-18T11:34:25;11.20;42.00
19180;DHT22;9722;48.754;8.868;2022-12-18T11:37:57;11.00;42.20
19180;DHT22;9722;48.754;8.868;2022-12-18T11:41:25;11.00;42.00
19180;DHT22;9722;48.754;8.868;2022-12-18T11:48:38;10.90;42.30
19180;DHT22;9722;48.754;8.868;2022-12-18T11:55:33;10.60;42.30
19180;DHT22;9722;48.754;8.868;2022-12-18T11:59:13;10.30;42.30
19180;DHT22;9722;48.754;8.868;2022-12-18T12:03:00;9.70;43.70
19180;DHT22;9722;48.754;8.868;2022-12-18T12:18:13;7.80;46.20
19180;DHT22;9722;48.754;8.868;2022-12-18T12:21:40;7.20;46.80
19180;DHT22;9722;48.754;8.868;2022-12-18T12:28:47;6.20;48.50
19180;DHT22;9722;48.754;8.868;2022-12-18T12:39:16;5.20;50.50
19180;DHT22;9722;48.754;8.868;2022-12-18T12:43:38;4.80;51.20
19180;DHT22;9722;48.754;8.868;2022-12-18T12:46:52;4.50;51.80
19180;DHT22;9722;48.754;8.868;2022-12-18T12:50:18;4.30;52.30
19180;DHT22;9722;48.754;8.868;2022-12-18T12:53:40;4.10;52.80
19180;DHT22;9722;48.754;8.868;2022-12-18T12:57:12;4.00;53.50
19180;DHT22;9722;48.754;8.868;2022-12-18T13:00:56;4.00;53.50
19180;DHT22;9722;48.754;8.868;2022-12-18T13:04:41;4.10;53.60
19180;DHT22;9722;48.754;8.868;2022-12-18T13:08:07;4.20;53.80
19180;DHT22;9722;48.754;8.868;2022-12-18T13:11:41;4.20;53.90
19180;DHT22;9722;48.754;8.868;2022-12-18T13:15:26;4.30;54.10
19180;DHT22;9722;48.754;8.868;2022-12-18T13:18:53;4.20;54.20
19180;DHT22;9722;48.754;8.868;2022-12-18T13:22:28;4.00;54.50
19180;DHT22;9722;48.754;8.868;2022-12-18T13:29:42;3.70;55.30
19180;DHT22;9722;48.754;8.868;2022-12-18T13:36:40;3.20;56.10
19180;DHT22;9722;48.754;8.868;2022-12-18T13:40:00;3.00;56.40
19180;DHT22;9722;48.754;8.868;2022-12-18T13:46:49;2.60;57.30
19180;DHT22;9722;48.754;8.868;2022-12-18T13:50:21;2.50;57.80
19180;DHT22;9722;48.754;8.868;2022-12-18T13:53:46;2.40;58.20
19180;DHT22;9722;48.754;8.868;2022-12-18T14:00:51;2.20;58.70
19180;DHT22;9722;48.754;8.868;2022-12-18T14:04:19;2.10;58.80
19180;DHT22;9722;48.754;8.868;2022-12-18T14:07:40;1.80;59.30
19180;DHT22;9722;48.754;8.868;2022-12-18T14:11:01;1.50;59.80
19180;DHT22;9722;48.754;8.868;2022-12-18T14:14:24;1.30;60.60
19180;DHT22;9722;48.754;8.868;2022-12-18T14:17:45;1.00;61.10
19180;DHT22;9722;48.754;8.868;2022-12-18T14:21:05;0.90;61.80
19180;DHT22;9722;48.754;8.868;2022-12-18T14:24:26;0.70;62.40
19180;DHT22;9722;48.754;8.868;2022-12-18T14:28:32;0.60;62.90
19180;DHT22;9722;48.754;8.868;2022-12-18T14:31:33;0.50;63.40
19180;DHT22;9722;48.754;8.868;2022-12-18T14:34:54;0.30;63.60
19180;DHT22;9722;48.754;8.868;2022-12-18T14:38:28;0.20;64.30
19180;DHT22;9722;48.754;8.868;2022-12-18T14:41:49;0.00;64.80
19180;DHT22;9722;48.754;8.868;2022-12-18T14:48:53;-0.30;65.80
19180;DHT22;9722;48.754;8.868;2022-12-18T14:52:31;-0.50;66.20
19180;DHT22;9722;48.754;8.868;2022-12-18T14:55:52;-0.60;66.80
19180;DHT22;9722;48.754;8.868;2022-12-18T14:59:14;-0.80;67.40
19180;DHT22;9722;48.754;8.868;2022-12-18T15:02:36;-0.90;67.90
19180;DHT22;9722;48.754;8.868;2022-12-18T15:06:15;-1.10;68.40
19180;DHT22;9722;48.754;8.868;2022-12-18T15:09:37;-1.20;69.20
19180;DHT22;9722;48.754;8.868;2022-12-18T15:16:23;-1.50;70.00
19180;DHT22;9722;48.754;8.868;2022-12-18T15:19:44;-1.60;70.60
19180;DHT22;9722;48.754;8.868;2022-12-18T15:26:52;-1.90;71.50
19180;DHT22;9722;48.754;8.868;2022-12-18T15:30:17;-2.00;72.00
19180;DHT22;9722;48.754;8.868;2022-12-18T15:33:43;-2.10;72.40
19180;DHT22;9722;48.754;8.868;2022-12-18T15:37:07;-2.20;73.00
19180;DHT22;9722;48.754;8.868;2022-12-18T15:40:28;-2.30;73.70
19180;DHT22;9722;48.754;8.868;2022-12-18T15:43:51;-2.40;74.20
19180;DHT22;9722;48.754;8.868;2022-12-18T15:47:12;-2.50;74.60
19180;DHT22;9722;48.754;8.868;2022-12-18T15:50:33;-2.60;75.10
19180;DHT22;9722;48.754;8.868;2022-12-18T15:53:56;-2.70;75.40
19180;DHT22;9722;48.754;8.868;2022-12-18T15:57:17;-2.70;75.80
19180;DHT22;9722;48.754;8.868;2022-12-18T16:00:43;-2.80;76.20
19180;DHT22;9722;48.754;8.868;2022-12-18T16:04:04;-2.90;76.60
19180;DHT22;9722;48.754;8.868;2022-12-18T16:07:24;-2.90;77.40
19180;DHT22;9722;48.754;8.868;2022-12-18T16:10:45;-2.90;77.60
19180;DHT22;9722;48.754;8.868;2022-12-18T16:14:17;-2.90;77.80
19180;DHT22;9722;48.754;8.868;2022-12-18T16:17:42;-2.90;78.20
19180;DHT22;9722;48.754;8.868;2022-12-18T16:21:03;-2.90;78.60
19180;DHT22;9722;48.754;8.868;2022-12-18T16:24:29;-2.90;78.90
19180;DHT22;9722;48.754;8.868;2022-12-18T16:27:50;-2.90;79.30
19180;DHT22;9722;48.754;8.868;2022-12-18T16:31:11;-2.80;79.70
19180;DHT22;9722;48.754;8.868;2022-12-18T16:34:33;-2.80;79.70
19180;DHT22;9722;48.754;8.868;2022-12-18T16:37:54;-2.70;80.80
19180;DHT22;9722;48.754;8.868;2022-12-18T16:41:19;-2.80;80.30
19180;DHT22;9722;48.754;8.868;2022-12-18T16:44:51;-2.70;80.90
19180;DHT22;9722;48.754;8.868;2022-12-18T16:48:12;-2.70;81.10
19180;DHT22;9722;48.754;8.868;2022-12-18T16:51:32;-2.70;81.30
19180;DHT22;9722;48.754;8.868;2022-12-18T16:54:53;-2.70;81.50
19180;DHT22;9722;48.754;8.868;2022-12-18T16:58:13;-2.60;81.60
19180;DHT22;9722;48.754;8.868;2022-12-18T17:01:34;-2.60;81.80
19180;DHT22;9722;48.754;8.868;2022-12-18T17:04:56;-2.60;82.20
19180;DHT22;9722;48.754;8.868;2022-12-18T17:08:17;-2.60;82.40
19180;DHT22;9722;48.754;8.868;2022-12-18T17:11:37;-2.60;82.70
19180;DHT22;9722;48.754;8.868;2022-12-18T17:14:58;-2.60;82.90
19180;DHT22;9722;48.754;8.868;2022-12-18T17:18:18;-2.60;83.20
19180;DHT22;9722;48.754;8.868;2022-12-18T17:21:40;-2.60;83.70
19180;DHT22;9722;48.754;8.868;2022-12-18T17:25:01;-2.60;83.70
19180;DHT22;9722;48.754;8.868;2022-12-18T17:28:22;-2.60;84.00
19180;DHT22;9722;48.754;8.868;2022-12-18T17:31:43;-2.60;84.20
19180;DHT22;9722;48.754;8.868;2022-12-18T17:35:04;-2.60;84.50
19180;DHT22;9722;48.754;8.868;2022-12-18T17:38:24;-2.70;84.70
19180;DHT22;9722;48.754;8.868;2022-12-18T17:41:46;-2.70;85.00
19180;DHT22;9722;48.754;8.868;2022-12-18T17:45:07;-2.70;85.30
19180;DHT22;9722;48.754;8.868;2022-12-18T17:48:28;-2.60;85.50
19180;DHT22;9722;48.754;8.868;2022-12-18T17:51:49;-2.60;85.60
19180;DHT22;9722;48.754;8.868;2022-12-18T17:55:10;-2.60;86.00
19180;DHT22;9722;48.754;8.868;2022-12-18T17:58:32;-2.60;86.20
19180;DHT22;9722;48.754;8.868;2022-12-18T18:01:53;-2.60;86.60
19180;DHT22;9722;48.754;8.868;2022-12-18T18:05:14;-2.60;86.80
19180;DHT22;9722;48.754;8.868;2022-12-18T18:08:35;-2.50;87.20
19180;DHT22;9722;48.754;8.868;2022-12-18T18:11:55;-2.60;87.50
19180;DHT22;9722;48.754;8.868;2022-12-18T18:15:34;-2.60;87.90
19180;DHT22;9722;48.754;8.868;2022-12-18T18:19:00;-2.50;88.50
19180;DHT22;9722;48.754;8.868;2022-12-18T18:22:21;-2.60;89.20
19180;DHT22;9722;48.754;8.868;2022-12-18T18:25:41;-2.50;89.70
19180;DHT22;9722;48.754;8.868;2022-12-18T18:29:03;-2.50;90.00
19180;DHT22;9722;48.754;8.868;2022-12-18T18:32:24;-2.50;90.20
19180;DHT22;9722;48.754;8.868;2022-12-18T18:35:45;-2.40;90.50
19180;DHT22;9722;48.754;8.868;2022-12-18T18:39:05;-2.40;90.50
19180;DHT22;9722;48.754;8.868;2022-12-18T18:42:26;-2.40;90.70
19180;DHT22;9722;48.754;8.868;2022-12-18T18:45:46;-2.40;90.90
19180;DHT22;9722;48.754;8.868;2022-12-18T18:49:07;-2.40;91.00
19180;DHT22;9722;48.754;8.868;2022-12-18T18:52:28;-2.30;91.10
19180;DHT22;9722;48.754;8.868;2022-12-18T18:55:49;-2.30;91.30
19180;DHT22;9722;48.754;8.868;2022-12-18T18:59:09;-2.30;91.30
19180;DHT22;9722;48.754;8.868;2022-12-18T19:02:30;-2.30;91.40
19180;DHT22;9722;48.754;8.868;2022-12-18T19:05:52;-2.20;91.40
19180;DHT22;9722;48.754;8.868;2022-12-18T19:09:14;-2.20;91.50
19180;DHT22;9722;48.754;8.868;2022-12-18T19:12:38;-2.20;91.90
19180;DHT22;9722;48.754;8.868;2022-12-18T19:16:17;-2.10;91.80
19180;DHT22;9722;48.754;8.868;2022-12-18T19:19:37;-2.00;91.90
19180;DHT22;9722;48.754;8.868;2022-12-18T19:22:58;-2.00;91.90
19180;DHT22;9722;48.754;8.868;2022-12-18T19:26:19;-2.00;91.90
19180;DHT22;9722;48.754;8.868;2022-12-18T19:29:40;-2.00;91.90
19180;DHT22;9722;48.754;8.868;2022-12-18T19:33:01;-2.00;91.90
19180;DHT22;9722;48.754;8.868;2022-12-18T19:36:24;-2.00;92.00
19180;DHT22;9722;48.754;8.868;2022-12-18T19:39:45;-2.00;92.10
19180;DHT22;9722;48.754;8.868;2022-12-18T19:43:06;-2.00;92.10
19180;DHT22;9722;48.754;8.868;2022-12-18T19:46:27;-1.90;92.20
19180;DHT22;9722;48.754;8.868;2022-12-18T19:49:50;-1.80;92.20
19180;DHT22;9722;48.754;8.868;2022-12-18T19:53:11;-1.80;92.20
19180;DHT22;9722;48.754;8.868;2022-12-18T19:56:33;-1.70;92.20
19180;DHT22;9722;48.754;8.868;2022-12-18T19:59:54;-1.70;92.10
19180;DHT22;9722;48.754;8.868;2022-12-18T20:03:14;-1.60;92.20
19180;DHT22;9722;48.754;8.868;2022-12-18T20:06:45;-1.60;92.10
19180;DHT22;9722;48.754;8.868;2022-12-18T20:10:09;-1.60;92.10
19180;DHT22;9722;48.754;8.868;2022-12-18T20:13:32;-1.50;92.20
19180;DHT22;9722;48.754;8.868;2022-12-18T20:16:53;-1.50;92.20
19180;DHT22;9722;48.754;8.868;2022-12-18T20:20:14;-1.50;92.20
19180;DHT22;9722;48.754;8.868;2022-12-18T20:23:34;-1.50;92.10
19180;DHT22;9722;48.754;8.868;2022-12-18T20:26:55;-1.40;92.20
19180;DHT22;9722;48.754;8.868;2022-12-18T20:30:16;-1.30;92.20
19180;DHT22;9722;48.754;8.868;2022-12-18T20:33:36;-1.30;92.20
19180;DHT22;9722;48.754;8.868;2022-12-18T20:36:57;-1.20;92.00
19180;DHT22;9722;48.754;8.868;2022-12-18T20:40:17;-1.10;91.90
19180;DHT22;9722;48.754;8.868;2022-12-18T20:43:38;-1.10;91.70
19180;DHT22;9722;48.754;8.868;2022-12-18T20:46:59;-1.10;91.60
19180;DHT22;9722;48.754;8.868;2022-12-18T20:50:22;-1.10;91.50
19180;DHT22;9722;48.754;8.868;2022-12-18T20:53:42;-1.10;91.40
19180;DHT22;9722;48.754;8.868;2022-12-18T20:57:04;-1.00;91.40
19180;DHT22;9722;48.754;8.868;2022-12-18T21:00:24;-1.00;91.40
19180;DHT22;9722;48.754;8.868;2022-12-18T21:03:45;-0.90;91.40
19180;DHT22;9722;48.754;8.868;2022-12-18T21:07:06;-0.90;91.20
19180;DHT22;9722;48.754;8.868;2022-12-18T21:10:27;-0.80;91.20
19180;DHT22;9722;48.754;8.868;2022-12-18T21:13:47;-0.90;91.20
19180;DHT22;9722;48.754;8.868;2022-12-18T21:17:08;-0.90;91.20
19180;DHT22;9722;48.754;8.868;2022-12-18T21:20:29;-0.90;91.20
19180;DHT22;9722;48.754;8.868;2022-12-18T21:23:49;-0.80;91.20
19180;DHT22;9722;48.754;8.868;2022-12-18T21:27:10;-0.80;91.20
19180;DHT22;9722;48.754;8.868;2022-12-18T21:30:31;-0.70;91.30
19180;DHT22;9722;48.754;8.868;2022-12-18T21:33:51;-0.70;91.30
19180;DHT22;9722;48.754;8.868;2022-12-18T21:37:12;-0.60;91.20
19180;DHT22;9722;48.754;8.868;2022-12-18T21:40:32;-0.60;91.20
19180;DHT22;9722;48.754;8.868;2022-12-18T21:43:53;-0.60;91.10
19180;DHT22;9722;48.754;8.868;2022-12-18T21:47:25;-0.50;91.00
19180;DHT22;9722;48.754;8.868;2022-12-18T21:50:46;-0.50;91.00
19180;DHT22;9722;48.754;8.868;2022-12-18T21:54:06;-0.50;90.90
19180;DHT22;9722;48.754;8.868;2022-12-18T21:57:27;-0.40;90.90
19180;DHT22;9722;48.754;8.868;2022-12-18T22:00:48;-0.40;90.90
19180;DHT22;9722;48.754;8.868;2022-12-18T22:04:09;-0.30;91.30
19180;DHT22;9722;48.754;8.868;2022-12-18T22:07:30;-0.30;90.80
19180;DHT22;9722;48.754;8.868;2022-12-18T22:10:50;-0.20;90.80
19180;DHT22;9722;48.754;8.868;2022-12-18T22:14:11;-0.20;90.70
19180;DHT22;9722;48.754;8.868;2022-12-18T22:17:32;-0.20;90.70
19180;DHT22;9722;48.754;8.868;2022-12-18T22:21:03;-0.30;91.00
19180;DHT22;9722;48.754;8.868;2022-12-18T22:24:25;-0.30;90.60
19180;DHT22;9722;48.754;8.868;2022-12-18T22:27:46;-0.30;90.70
19180;DHT22;9722;48.754;8.868;2022-12-18T22:31:26;-0.30;90.70
19180;DHT22;9722;48.754;8.868;2022-12-18T22:34:47;-0.30;90.80
19180;DHT22;9722;48.754;8.868;2022-12-18T22:38:08;-0.30;90.80
19180;DHT22;9722;48.754;8.868;2022-12-18T22:41:28;-0.30;90.90
19180;DHT22;9722;48.754;8.868;2022-12-18T22:44:50;-0.40;91.00
19180;DHT22;9722;48.754;8.868;2022-12-18T22:48:10;-0.30;91.10
19180;DHT22;9722;48.754;8.868;2022-12-18T22:51:31;-0.30;91.20
19180;DHT22;9722;48.754;8.868;2022-12-18T22:54:52;-0.30;91.20
19180;DHT22;9722;48.754;8.868;2022-12-18T22:58:12;-0.30;91.20
19180;DHT22;9722;48.754;8.868;2022-12-18T23:01:33;-0.30;91.20
19180;DHT22;9722;48.754;8.868;2022-12-18T23:04:54;-0.30;91.20
19180;DHT22;9722;48.754;8.868;2022-12-18T23:08:14;-0.30;91.30
19180;DHT22;9722;48.754;8.868;2022-12-18T23:11:35;-0.20;91.50
19180;DHT22;9722;48.754;8.868;2022-12-18T23:14:55;-0.20;91.50